Time;durP1;ratioP1;P1;durP2;ratioP2;P2;SDS_P1;SDS_P2;PMS_P1;PMS_P2;Temp;Humidity;BMP_temperature;BMP_pressure;BME280_temperature;BME280_humidity;BME280_pressure;Samples;Min_cycle;Max_cycle;Signal;HPM_P1;HPM_P2
2023/02/07 00:04:00;;;;;;;;;;;;;;;0.64;100.00;103943.16;10460860;28;19947;-64
2023/02/07 00:09:03;;;;;;;;;;;;;;;0.78;100.00;103935.91;10463972;28;20282;-63
2023/02/07 00:14:06;;;;;;;;;;;;;;;0.51;100.00;103929.84;10452388;28;19924;-64
2023/02/07 00:19:08;;;;;;;;;;;;;;;0.43;100.00;103927.84;10428751;28;19947;-64
2023/02/07 00:24:11;;;;;;;;;;;;;;;0.15;100.00;103930.31;10461589;28;19925;-64
2023/02/07 00:29:13;;;;;;;;;;;;;;;0.30;100.00;103930.00;10463928;28;19920;-64
2023/02/07 00:34:15;;;;;;;;;;;;;;;0.20;100.00;103929.59;10462425;28;19924;-64
2023/02/07 00:39:17;;;;;;;;;;;;;;;0.19;100.00;103931.31;10457885;28;19921;-64
2023/02/07 00:44:20;;;;;;;;;;;;;;;0.27;100.00;103934.13;10463440;28;19927;-64
2023/02/07 00:49:22;;;;;;;;;;;;;;;0.24;100.00;103928.91;10462480;28;19928;-64
2023/02/07 00:54:24;;;;;;;;;;;;;;;0.04;100.00;103930.75;10462004;28;19927;-63
2023/02/07 00:59:26;;;;;;;;;;;;;;;0.17;100.00;103932.94;10454028;28;19921;-64
2023/02/07 01:04:29;;;;;;;;;;;;;;;0.05;100.00;103922.19;10461943;28;20314;-64
2023/02/07 01:09:31;;;;;;;;;;;;;;;0.12;100.00;103929.34;10462370;28;20015;-64
2023/02/07 01:14:33;;;;;;;;;;;;;;;-0.05;100.00;103916.72;10449253;28;19924;-64
2023/02/07 01:19:35;;;;;;;;;;;;;;;-0.02;100.00;103921.06;10430998;28;19920;-64
2023/02/07 01:24:38;;;;;;;;;;;;;;;0.02;100.00;103927.22;10461032;28;19928;-64
2023/02/07 01:29:40;;;;;;;;;;;;;;;0.12;100.00;103931.91;10461545;28;19921;-64
2023/02/07 01:34:42;;;;;;;;;;;;;;;0.00;100.00;103929.75;10461446;28;19920;-64
2023/02/07 01:39:45;;;;;;;;;;;;;;;-0.26;100.00;103936.50;10459188;28;19974;-64
2023/02/07 01:44:58;;;;;;;;;;;;;;;-0.07;100.00;103935.47;10424711;28;19921;-64
2023/02/07 01:50:00;;;;;;;;;;;;;;;-0.32;100.00;103932.00;10417925;28;19921;-64
2023/02/07 01:55:04;;;;;;;;;;;;;;;-0.10;100.00;103932.78;10435415;28;19921;-64
2023/02/07 02:00:07;;;;;;;;;;;;;;;-0.41;100.00;103918.75;10458486;28;19920;-64
2023/02/07 02:05:09;;;;;;;;;;;;;;;-0.25;100.00;103928.84;10456129;28;19921;-64
2023/02/07 02:10:13;;;;;;;;;;;;;;;-0.13;100.00;103941.28;10441783;28;19920;-64
2023/02/07 02:15:32;;;;;;;;;;;;;;;-0.23;100.00;103945.22;10459295;28;20253;-63
2023/02/07 02:20:50;;;;;;;;;;;;;;;-0.08;100.00;103951.78;10457911;28;19921;-64
2023/02/07 02:25:52;;;;;;;;;;;;;;;-0.11;100.00;103952.53;10455296;28;19943;-64
2023/02/07 02:31:00;;;;;;;;;;;;;;;-0.26;100.00;103952.81;10457429;28;19921;-64
2023/02/07 02:36:20;;;;;;;;;;;;;;;-0.33;100.00;103943.09;10438079;28;19956;-64
2023/02/07 02:41:23;;;;;;;;;;;;;;;-0.29;100.00;103952.69;10417186;28;20380;-64
2023/02/07 02:46:30;;;;;;;;;;;;;;;-0.50;100.00;103951.88;10436621;28;19928;-64
2023/02/07 02:51:32;;;;;;;;;;;;;;;-0.49;100.00;103933.91;10457356;28;19927;-64
2023/02/07 02:56:41;;;;;;;;;;;;;;;-0.61;100.00;103938.56;10456408;28;19920;-64
2023/02/07 03:01:43;;;;;;;;;;;;;;;-0.71;100.00;103933.88;10455631;28;20323;-64
2023/02/07 03:06:45;;;;;;;;;;;;;;;-0.53;100.00;103946.63;10457204;28;19990;-64
2023/02/07 03:16:57;;;;;;;;;;;;;;;-0.93;100.00;103943.31;10371738;28;19925;-67
2023/02/07 03:22:00;;;;;;;;;;;;;;;-0.85;100.00;103941.94;10371778;28;19925;-68
2023/02/07 03:27:07;;;;;;;;;;;;;;;-0.83;100.00;103937.72;10374212;28;19984;-68
2023/02/07 03:32:09;;;;;;;;;;;;;;;-1.06;100.00;103943.59;10357886;28;19925;-68
2023/02/07 03:37:14;;;;;;;;;;;;;;;-1.15;100.00;103944.13;10360307;28;19929;-67
2023/02/07 03:42:55;;;;;;;;;;;;;;;-0.99;100.00;103936.22;10379350;28;19926;-67
2023/02/07 03:47:57;;;;;;;;;;;;;;;-0.82;100.00;103946.34;10257811;29;19934;-67
2023/02/07 03:52:59;;;;;;;;;;;;;;;-0.57;100.00;103941.34;10322344;28;19926;-67
2023/02/07 03:58:02;;;;;;;;;;;;;;;-0.77;100.00;103931.97;10341864;28;19922;-68
2023/02/07 04:03:04;;;;;;;;;;;;;;;-0.65;100.00;103936.72;10380212;28;19922;-68
2023/02/07 04:08:06;;;;;;;;;;;;;;;-0.46;100.00;103928.88;10381397;28;19922;-67
2023/02/07 04:13:09;;;;;;;;;;;;;;;-0.79;100.00;103933.56;10363595;28;20395;-67
2023/02/07 04:18:11;;;;;;;;;;;;;;;-0.42;100.00;103935.91;10341938;28;19921;-67
2023/02/07 04:23:13;;;;;;;;;;;;;;;-0.27;100.00;103927.91;10380446;28;19922;-67
2023/02/07 04:28:15;;;;;;;;;;;;;;;-0.45;100.00;103925.50;10381249;28;20376;-67
2023/02/07 04:33:18;;;;;;;;;;;;;;;-0.44;100.00;103932.41;10380943;28;19968;-67
2023/02/07 04:38:20;;;;;;;;;;;;;;;-0.62;100.00;103936.84;10378978;28;19929;-67
2023/02/07 04:43:22;;;;;;;;;;;;;;;-0.60;100.00;103935.19;10380445;28;20292;-67
2023/02/07 04:48:24;;;;;;;;;;;;;;;-0.81;100.00;103928.38;10359488;28;19944;-67
2023/02/07 04:53:26;;;;;;;;;;;;;;;-0.71;100.00;103927.03;10363491;28;19976;-67
2023/02/07 04:58:29;;;;;;;;;;;;;;;-0.69;100.00;103921.94;10378587;28;20399;-67
2023/02/07 05:03:31;;;;;;;;;;;;;;;-0.69;100.00;103927.09;10378963;28;19929;-67
2023/02/07 05:08:34;;;;;;;;;;;;;;;-0.49;100.00;103920.16;10379780;28;19925;-67
2023/02/07 05:13:36;;;;;;;;;;;;;;;-1.06;100.00;103926.50;10361711;28;19948;-67
2023/02/07 05:18:38;;;;;;;;;;;;;;;-1.03;100.00;103928.31;10376748;28;20176;-68
2023/02/07 05:23:41;;;;;;;;;;;;;;;-0.99;100.00;103931.09;10379722;28;19929;-68
2023/02/07 05:28:43;;;;;;;;;;;;;;;-1.38;100.00;103938.00;10379468;28;19932;-67
2023/02/07 05:33:45;;;;;;;;;;;;;;;-1.23;100.00;103950.63;10378630;28;19975;-67
2023/02/07 05:38:47;;;;;;;;;;;;;;;-1.40;100.00;103947.34;10377121;28;20331;-67
2023/02/07 05:43:49;;;;;;;;;;;;;;;-1.26;100.00;103958.19;10361474;28;19979;-67
2023/02/07 05:48:52;;;;;;;;;;;;;;;-1.04;100.00;103960.88;10377998;28;19952;-67
2023/02/07 05:53:56;;;;;;;;;;;;;;;-0.95;100.00;103958.66;10377945;28;19921;-67
2023/02/07 05:58:58;;;;;;;;;;;;;;;-0.95;100.00;103968.09;10376227;28;19967;-67
2023/02/07 06:04:00;;;;;;;;;;;;;;;-1.05;100.00;103971.09;10377460;28;19925;-67
2023/02/07 06:09:03;;;;;;;;;;;;;;;-1.12;100.00;103970.84;10377390;28;20365;-68
2023/02/07 06:14:06;;;;;;;;;;;;;;;-1.10;100.00;103970.03;10376653;28;19921;-68
2023/02/07 06:19:09;;;;;;;;;;;;;;;-1.10;100.00;103975.16;10374814;28;19926;-67
2023/02/07 06:24:11;;;;;;;;;;;;;;;-1.09;100.00;103971.75;10375211;28;19921;-67
2023/02/07 06:29:14;;;;;;;;;;;;;;;-1.27;100.00;103971.88;10376611;28;19928;-67
2023/02/07 06:34:16;;;;;;;;;;;;;;;-1.32;100.00;103976.81;10375927;28;19975;-67
2023/02/07 06:39:18;;;;;;;;;;;;;;;-1.34;100.00;103974.19;10375252;28;19929;-67
2023/02/07 06:44:20;;;;;;;;;;;;;;;-1.27;100.00;103989.88;10376089;28;19975;-67
2023/02/07 06:49:22;;;;;;;;;;;;;;;-1.34;100.00;103979.31;10375210;28;19925;-68
2023/02/07 06:54:25;;;;;;;;;;;;;;;-0.95;100.00;103991.25;10376408;28;19975;-68
2023/02/07 06:59:27;;;;;;;;;;;;;;;-1.38;100.00;103984.25;10373043;28;19921;-67
2023/02/07 07:04:29;;;;;;;;;;;;;;;-1.42;100.00;103992.66;10374289;28;19921;-67
2023/02/07 07:09:31;;;;;;;;;;;;;;;-1.18;100.00;104000.53;10375968;28;19925;-67
2023/02/07 07:14:34;;;;;;;;;;;;;;;-1.28;100.00;104014.69;10373947;28;19983;-67
2023/02/07 07:19:36;;;;;;;;;;;;;;;-1.30;100.00;104016.31;10372882;28;19922;-67
2023/02/07 07:24:39;;;;;;;;;;;;;;;-1.25;100.00;104012.25;10374959;28;19968;-67
2023/02/07 07:29:41;;;;;;;;;;;;;;;-1.63;100.00;104020.84;10369337;28;19929;-68
2023/02/07 07:34:43;;;;;;;;;;;;;;;-1.79;100.00;104027.00;10372946;28;19925;-68
2023/02/07 07:39:45;;;;;;;;;;;;;;;-1.53;100.00;104039.34;10391278;28;20036;-68
2023/02/07 07:44:48;;;;;;;;;;;;;;;-1.19;100.00;104039.94;10405493;28;20414;-68
2023/02/07 07:49:50;;;;;;;;;;;;;;;-1.15;100.00;104044.41;10397658;28;19987;-68
2023/02/07 07:54:53;;;;;;;;;;;;;;;-1.21;100.00;104036.41;10414968;28;19963;-68
2023/02/07 07:59:55;;;;;;;;;;;;;;;-2.06;100.00;104041.19;10366440;28;19925;-68
2023/02/07 08:04:57;;;;;;;;;;;;;;;-1.44;100.00;104044.00;10371197;28;20324;-67
2023/02/07 08:09:59;;;;;;;;;;;;;;;-1.18;100.00;104046.84;10370010;28;20419;-68
2023/02/07 08:15:02;;;;;;;;;;;;;;;-1.39;100.00;104051.94;10368487;28;19930;-68
2023/02/07 08:20:04;;;;;;;;;;;;;;;-1.36;100.00;104057.19;10371201;28;19936;-69
2023/02/07 08:25:07;;;;;;;;;;;;;;;-1.66;100.00;104064.38;10364409;28;20335;-67
2023/02/07 08:30:10;;;;;;;;;;;;;;;-2.03;100.00;104049.81;10403399;28;20007;-67
2023/02/07 08:35:12;;;;;;;;;;;;;;;-1.98;100.00;104053.53;10387624;28;20340;-68
2023/02/07 08:40:14;;;;;;;;;;;;;;;-1.32;100.00;104046.22;10366197;28;20016;-67
2023/02/07 08:45:17;;;;;;;;;;;;;;;-0.98;100.00;104042.56;10378348;28;20296;-67
2023/02/07 08:50:19;;;;;;;;;;;;;;;-1.57;100.00;104049.41;10362210;28;19921;-67
2023/02/07 08:55:21;;;;;;;;;;;;;;;-1.28;100.00;104037.81;10358152;28;19921;-68
2023/02/07 09:00:23;;;;;;;;;;;;;;;-0.99;100.00;104027.94;10373325;28;20335;-68
2023/02/07 09:05:26;;;;;;;;;;;;;;;-0.08;100.00;104032.50;10376616;28;20365;-68
2023/02/07 09:10:28;;;;;;;;;;;;;;;0.35;100.00;104031.56;10380301;28;19921;-68
2023/02/07 09:15:30;;;;;;;;;;;;;;;1.27;100.00;104025.28;10362136;28;19975;-68
2023/02/07 09:20:33;;;;;;;;;;;;;;;1.59;100.00;104012.53;10379943;28;19921;-68
2023/02/07 09:25:38;;;;;;;;;;;;;;;2.12;100.00;104013.31;10377881;28;19921;-67
2023/02/07 09:30:43;;;;;;;;;;;;;;;3.26;100.00;104006.03;10379599;28;19925;-67
2023/02/07 09:35:45;;;;;;;;;;;;;;;4.62;100.00;103990.78;10361571;28;19975;-68
2023/02/07 09:40:49;;;;;;;;;;;;;;;5.62;100.00;103992.47;10379148;28;19928;-68
2023/02/07 09:45:52;;;;;;;;;;;;;;;5.70;94.43;103983.06;10360940;28;19926;-68
2023/02/07 09:50:56;;;;;;;;;;;;;;;6.59;89.42;103970.28;10361584;28;19922;-68
2023/02/07 09:55:59;;;;;;;;;;;;;;;6.94;84.94;103971.47;10361237;28;19972;-68
2023/02/07 10:01:05;;;;;;;;;;;;;;;7.72;83.01;103966.78;10377553;28;19995;-68
2023/02/07 10:06:13;;;;;;;;;;;;;;;8.13;82.18;103973.06;10377698;28;19921;-68
2023/02/07 10:11:33;;;;;;;;;;;;;;;7.81;78.02;103977.25;10361078;28;19929;-69
2023/02/07 10:16:54;;;;;;;;;;;;;;;9.15;75.10;103975.88;10360000;28;19925;-69
2023/02/07 10:21:56;;;;;;;;;;;;;;;9.21;74.63;103978.47;10376880;28;20324;-70
2023/02/07 10:27:00;;;;;;;;;;;;;;;8.80;72.47;103968.91;10377426;28;19929;-70
2023/02/07 10:32:07;;;;;;;;;;;;;;;10.14;69.15;103971.25;10376613;28;19921;-70
2023/02/07 10:37:17;;;;;;;;;;;;;;;10.27;69.43;103974.66;10359218;28;19967;-70
2023/02/07 10:42:20;;;;;;;;;;;;;;;10.37;69.04;103971.13;10376836;28;19972;-70
2023/02/07 10:47:24;;;;;;;;;;;;;;;10.68;66.24;103968.34;10375961;28;19928;-71
2023/02/07 10:52:27;;;;;;;;;;;;;;;10.92;65.46;103968.13;10376558;28;19975;-71
2023/02/07 10:57:30;;;;;;;;;;;;;;;13.63;65.29;103968.78;10375757;28;20039;-71
2023/02/07 11:02:38;;;;;;;;;;;;;;;14.41;59.40;103971.53;10376145;28;19925;-71
2023/02/07 11:07:41;;;;;;;;;;;;;;;15.76;59.39;103959.28;10358250;28;20427;-71
2023/02/07 11:12:49;;;;;;;;;;;;;;;15.37;56.06;103961.25;10359129;28;19967;-72
2023/02/07 11:17:53;;;;;;;;;;;;;;;15.84;56.86;103956.41;10357740;28;19968;-69
2023/02/07 11:22:56;;;;;;;;;;;;;;;14.78;57.94;103946.94;10355476;28;20427;-71
2023/02/07 11:27:58;;;;;;;;;;;;;;;14.67;54.14;103947.19;10357041;28;19925;-71
2023/02/07 11:33:02;;;;;;;;;;;;;;;15.80;51.84;103949.47;10392603;28;19925;-71
2023/02/07 11:38:08;;;;;;;;;;;;;;;18.20;53.04;103933.25;10382972;28;19929;-71
2023/02/07 11:43:11;;;;;;;;;;;;;;;15.98;51.75;103930.44;10355916;28;19925;-71
2023/02/07 11:48:21;;;;;;;;;;;;;;;17.61;49.19;103921.41;10380316;28;19975;-71
2023/02/07 11:53:26;;;;;;;;;;;;;;;14.58;50.71;103922.81;10397614;28;19921;-72
2023/02/07 11:58:38;;;;;;;;;;;;;;;11.08;53.94;103923.44;10362834;28;19921;-71
2023/02/07 12:03:41;;;;;;;;;;;;;;;10.24;58.47;103925.81;10380756;28;20019;-71
2023/02/07 12:08:43;;;;;;;;;;;;;;;8.45;59.55;103920.09;10365186;28;19972;-71
2023/02/07 12:13:55;;;;;;;;;;;;;;;8.47;62.68;103907.91;10382229;28;19922;-70
2023/02/07 12:19:05;;;;;;;;;;;;;;;8.57;61.49;103912.25;10381312;28;19921;-70
2023/02/07 12:24:21;;;;;;;;;;;;;;;6.69;66.89;103906.13;10382145;28;19925;-70
2023/02/07 12:29:42;;;;;;;;;;;;;;;7.59;64.50;103905.00;10380811;28;19921;-70
2023/02/07 12:34:47;;;;;;;;;;;;;;;8.98;60.39;103892.22;10381834;28;19922;-70
2023/02/07 12:40:16;;;;;;;;;;;;;;;7.19;63.71;103895.22;10380931;28;19921;-70
2023/02/07 12:45:22;;;;;;;;;;;;;;;5.76;66.49;103907.72;10358428;28;19930;-69
2023/02/07 12:50:25;;;;;;;;;;;;;;;5.46;68.26;103905.59;10379925;28;19928;-69
2023/02/07 12:55:34;;;;;;;;;;;;;;;6.38;66.24;103903.25;10380399;28;19925;-69
2023/02/07 13:00:36;;;;;;;;;;;;;;;6.75;65.61;103902.72;10378969;28;19944;-69
2023/02/07 13:05:44;;;;;;;;;;;;;;;7.20;64.92;103902.19;10380671;28;19928;-68
2023/02/07 13:10:56;;;;;;;;;;;;;;;7.26;62.39;103893.50;10378906;28;19984;-68
2023/02/07 13:16:10;;;;;;;;;;;;;;;9.89;57.70;103887.59;10378459;28;19926;-68
2023/02/07 13:21:27;;;;;;;;;;;;;;;8.25;57.93;103899.13;10378928;28;19921;-68
2023/02/07 13:26:31;;;;;;;;;;;;;;;12.37;51.99;103884.22;10379170;28;20368;-68
2023/02/07 13:31:37;;;;;;;;;;;;;;;10.26;52.19;103886.53;10378977;28;19928;-68
2023/02/07 13:36:40;;;;;;;;;;;;;;;8.02;58.75;103884.31;10377617;28;20284;-68
2023/02/07 13:41:47;;;;;;;;;;;;;;;7.19;62.60;103876.97;10377301;28;19929;-68
2023/02/07 13:46:55;;;;;;;;;;;;;;;8.34;62.76;103867.84;10378465;28;20250;-67
2023/02/07 13:51:57;;;;;;;;;;;;;;;8.32;60.67;103861.72;10378381;28;19925;-71
2023/02/07 14:02:24;;;;;;;;;;;;;;;6.74;63.24;103872.31;10351475;28;19928;-70
2023/02/07 14:07:28;;;;;;;;;;;;;;;5.73;67.26;103847.91;10377144;28;19929;-71
2023/02/07 14:12:34;;;;;;;;;;;;;;;5.74;68.67;103854.81;10377109;28;20376;-70
2023/02/07 14:17:39;;;;;;;;;;;;;;;5.88;68.32;103857.59;10376740;28;19921;-70
2023/02/07 14:22:41;;;;;;;;;;;;;;;8.07;62.87;103850.38;10377399;28;19928;-70
2023/02/07 14:27:50;;;;;;;;;;;;;;;8.23;58.81;103848.69;10376833;28;19921;-70
2023/02/07 14:33:10;;;;;;;;;;;;;;;5.71;66.07;103859.13;10377292;28;19957;-70
2023/02/07 14:38:31;;;;;;;;;;;;;;;4.83;67.85;103863.97;10376469;28;20376;-70
2023/02/07 14:43:34;;;;;;;;;;;;;;;4.87;70.03;103869.22;10376312;28;19968;-69
2023/02/07 14:48:50;;;;;;;;;;;;;;;4.62;71.11;103863.63;10375004;28;20328;-69
2023/02/07 14:54:13;;;;;;;;;;;;;;;4.49;72.25;103872.94;10374698;28;19921;-69
2023/02/07 14:59:17;;;;;;;;;;;;;;;4.33;71.72;103873.50;10375115;28;19925;-69
2023/02/07 15:04:20;;;;;;;;;;;;;;;4.72;69.15;103877.63;10374396;28;20361;-69
2023/02/07 15:09:25;;;;;;;;;;;;;;;4.25;71.68;103869.06;10375607;28;19944;-69
2023/02/07 15:14:30;;;;;;;;;;;;;;;4.08;73.30;103868.75;10373961;28;20361;-69
2023/02/07 15:19:36;;;;;;;;;;;;;;;4.24;73.34;103869.03;10374604;28;19976;-69
2023/02/07 15:24:43;;;;;;;;;;;;;;;3.84;75.80;103861.34;10374370;28;19921;-69
2023/02/07 15:30:02;;;;;;;;;;;;;;;3.50;77.75;103867.56;10431514;22;19920;-69
2023/02/07 15:35:12;;;;;;;;;;;;;;;3.64;76.88;103860.06;10456918;28;19928;-69
2023/02/07 15:40:19;;;;;;;;;;;;;;;3.24;78.67;103860.09;10439708;28;19920;-69
2023/02/07 15:45:22;;;;;;;;;;;;;;;3.32;80.46;103866.31;10439664;28;19920;-69
2023/02/07 15:50:26;;;;;;;;;;;;;;;3.02;81.55;103868.22;10456702;28;19966;-69
2023/02/07 15:55:33;;;;;;;;;;;;;;;2.57;83.52;103860.25;10439421;28;19920;-69
2023/02/07 16:00:36;;;;;;;;;;;;;;;2.47;84.96;103871.22;10438642;28;20379;-69
2023/02/07 16:05:40;;;;;;;;;;;;;;;2.37;85.62;103864.03;10438639;28;20437;-69
2023/02/07 16:10:42;;;;;;;;;;;;;;;2.08;86.96;103863.25;10456055;28;19925;-68
2023/02/07 16:15:52;;;;;;;;;;;;;;;1.91;87.52;103861.06;10439068;28;19921;-68
2023/02/07 16:20:54;;;;;;;;;;;;;;;1.79;88.28;103863.31;10456505;28;19928;-68
2023/02/07 16:25:57;;;;;;;;;;;;;;;1.42;90.68;103873.44;10456360;28;19921;-69
2023/02/07 16:30:59;;;;;;;;;;;;;;;1.44;90.34;103861.44;10455463;28;19927;-68
2023/02/07 16:36:02;;;;;;;;;;;;;;;1.27;91.09;103875.56;10455678;28;19927;-68
2023/02/07 16:41:04;;;;;;;;;;;;;;;0.95;93.37;103875.44;10437778;28;19921;-69
2023/02/07 16:46:07;;;;;;;;;;;;;;;1.00;93.00;103883.31;10442603;28;19921;-68
2023/02/07 16:51:09;;;;;;;;;;;;;;;1.28;93.47;103872.16;10445186;28;20288;-68
2023/02/07 16:56:12;;;;;;;;;;;;;;;0.82;93.39;103881.00;10460623;28;19920;-68
2023/02/07 17:01:16;;;;;;;;;;;;;;;0.78;93.92;103872.31;10424693;28;19928;-68
2023/02/07 17:06:19;;;;;;;;;;;;;;;0.77;95.23;103888.59;10459540;28;19963;-68
2023/02/07 17:11:25;;;;;;;;;;;;;;;0.57;95.31;103882.75;10458796;28;19921;-68
2023/02/07 17:16:27;;;;;;;;;;;;;;;0.53;95.33;103888.66;10454529;28;19966;-68
2023/02/07 17:21:29;;;;;;;;;;;;;;;0.51;95.67;103890.31;10461610;28;19921;-69
2023/02/07 17:26:32;;;;;;;;;;;;;;;0.50;97.97;103897.16;10467863;28;19920;-68
2023/02/07 17:31:34;;;;;;;;;;;;;;;0.30;96.57;103900.75;10419238;28;19921;-69
2023/02/07 17:36:38;;;;;;;;;;;;;;;0.26;98.59;103904.91;10422564;28;19924;-69
2023/02/07 17:41:41;;;;;;;;;;;;;;;0.31;98.47;103905.09;10421362;28;19921;-69
2023/02/07 17:46:43;;;;;;;;;;;;;;;0.26;97.60;103894.59;10458234;28;20393;-69
2023/02/07 17:51:45;;;;;;;;;;;;;;;0.12;97.15;103904.44;10460414;28;20376;-70
2023/02/07 17:56:47;;;;;;;;;;;;;;;0.02;98.35;103904.03;10457996;28;20345;-69
2023/02/07 18:01:50;;;;;;;;;;;;;;;0.07;97.36;103908.53;10459368;28;19921;-69
2023/02/07 18:06:52;;;;;;;;;;;;;;;0.06;99.35;103906.78;10460272;28;19920;-70
2023/02/07 18:11:54;;;;;;;;;;;;;;;-0.21;98.70;103909.22;10475012;28;19921;-69
2023/02/07 18:16:57;;;;;;;;;;;;;;;0.07;98.49;103915.38;10473021;28;20387;-69
2023/02/07 18:21:59;;;;;;;;;;;;;;;0.05;99.16;103924.75;10464345;28;19924;-69
2023/02/07 18:27:01;;;;;;;;;;;;;;;0.01;99.15;103917.75;10458510;28;19920;-68
2023/02/07 18:32:04;;;;;;;;;;;;;;;-0.22;98.72;103920.31;10440570;28;19975;-69
2023/02/07 18:37:06;;;;;;;;;;;;;;;-0.14;100.00;103907.75;10457524;28;19928;-69
2023/02/07 18:42:08;;;;;;;;;;;;;;;-0.28;99.55;103913.25;10462617;28;19927;-69
2023/02/07 18:47:11;;;;;;;;;;;;;;;-0.41;100.00;103916.19;10457921;28;19967;-69
2023/02/07 18:52:13;;;;;;;;;;;;;;;-0.49;100.00;103910.72;10440420;28;19924;-69
2023/02/07 18:57:15;;;;;;;;;;;;;;;-0.48;100.00;103919.34;10457465;28;19927;-70
2023/02/07 19:02:17;;;;;;;;;;;;;;;-0.37;100.00;103925.78;10457462;28;19925;-69
2023/02/07 19:07:19;;;;;;;;;;;;;;;-0.56;100.00;103919.03;10456268;28;19920;-69
2023/02/07 19:12:22;;;;;;;;;;;;;;;-0.50;100.00;103921.88;10456619;28;19943;-70
2023/02/07 19:17:24;;;;;;;;;;;;;;;-0.68;100.00;103914.28;10440362;28;19927;-70
2023/02/07 19:22:28;;;;;;;;;;;;;;;-0.81;100.00;103912.06;10457030;28;20326;-70
2023/02/07 19:27:36;;;;;;;;;;;;;;;-0.52;100.00;103905.50;10456340;28;19970;-69
2023/02/07 19:32:39;;;;;;;;;;;;;;;-0.79;100.00;103902.69;10456072;28;19924;-69
2023/02/07 19:37:41;;;;;;;;;;;;;;;-0.58;100.00;103900.09;10455394;28;19928;-69
2023/02/07 19:42:44;;;;;;;;;;;;;;;-0.75;100.00;103899.44;10438672;28;19920;-69
2023/02/07 19:47:46;;;;;;;;;;;;;;;-0.66;100.00;103894.63;10480736;28;19920;-69
2023/02/07 19:52:51;;;;;;;;;;;;;;;-0.70;100.00;103900.50;10464750;28;19974;-69
2023/02/07 19:57:54;;;;;;;;;;;;;;;-0.93;100.00;103891.84;10455721;28;19921;-69
2023/02/07 20:02:57;;;;;;;;;;;;;;;-0.75;100.00;103890.00;10438258;28;19939;-69
2023/02/07 20:07:59;;;;;;;;;;;;;;;-0.66;100.00;103888.63;10455294;28;19920;-69
2023/02/07 20:13:02;;;;;;;;;;;;;;;-0.81;100.00;103879.50;10456749;28;19928;-69
2023/02/07 20:18:04;;;;;;;;;;;;;;;-0.70;100.00;103884.19;10437308;28;19924;-69
2023/02/07 20:23:06;;;;;;;;;;;;;;;-0.78;100.00;103879.59;10461713;28;19967;-69
2023/02/07 20:28:08;;;;;;;;;;;;;;;-0.85;100.00;103877.59;10463967;28;19928;-68
2023/02/07 20:33:11;;;;;;;;;;;;;;;-0.79;100.00;103879.53;10463169;28;19966;-69
2023/02/07 20:38:13;;;;;;;;;;;;;;;-1.04;100.00;103885.41;10462275;28;19986;-68
2023/02/07 20:43:15;;;;;;;;;;;;;;;-0.96;100.00;103887.47;10463605;28;19928;-68
2023/02/07 20:48:17;;;;;;;;;;;;;;;-1.01;100.00;103878.72;10463514;28;19927;-68
2023/02/07 20:53:20;;;;;;;;;;;;;;;-1.14;100.00;103872.19;10432860;28;19967;-68
2023/02/07 20:58:22;;;;;;;;;;;;;;;-1.21;100.00;103872.75;10423166;28;19920;-68
2023/02/07 21:03:24;;;;;;;;;;;;;;;-1.03;100.00;103882.88;10462835;28;19967;-68
2023/02/07 21:08:26;;;;;;;;;;;;;;;-0.99;100.00;103878.78;10462794;28;19928;-68
2023/02/07 21:13:28;;;;;;;;;;;;;;;-1.00;100.00;103880.44;10442170;28;20319;-68
2023/02/07 21:18:31;;;;;;;;;;;;;;;-1.13;100.00;103879.09;10462433;28;19921;-68
2023/02/07 21:23:34;;;;;;;;;;;;;;;-1.27;100.00;103879.34;10444488;28;19928;-68
2023/02/07 21:28:36;;;;;;;;;;;;;;;-1.25;100.00;103873.44;10460290;28;20374;-68
2023/02/07 21:33:38;;;;;;;;;;;;;;;-1.28;100.00;103870.72;10442158;28;20007;-68
2023/02/07 21:38:42;;;;;;;;;;;;;;;-1.45;100.00;103874.31;10444050;28;19921;-68
2023/02/07 21:43:45;;;;;;;;;;;;;;;-1.43;100.00;103865.84;10443646;28;19920;-68
2023/02/07 21:48:51;;;;;;;;;;;;;;;-1.50;100.00;103869.84;10457743;28;19982;-68
2023/02/07 21:53:53;;;;;;;;;;;;;;;-1.57;100.00;103862.69;10442110;28;19978;-68
2023/02/07 21:58:57;;;;;;;;;;;;;;;-1.56;100.00;103853.31;10460036;28;19966;-68
2023/02/07 22:04:00;;;;;;;;;;;;;;;-1.67;100.00;103851.97;10442130;28;20375;-68
2023/02/07 22:09:03;;;;;;;;;;;;;;;-1.77;100.00;103848.97;10442607;28;19921;-68
2023/02/07 22:14:06;;;;;;;;;;;;;;;-1.59;100.00;103843.75;10441177;28;19921;-68
2023/02/07 22:19:10;;;;;;;;;;;;;;;-1.47;100.00;103837.38;10442316;28;19971;-68
2023/02/07 22:24:12;;;;;;;;;;;;;;;-1.64;100.00;103850.41;10458822;28;19920;-68
2023/02/07 22:29:15;;;;;;;;;;;;;;;-1.61;100.00;103849.66;10441421;28;19921;-68
2023/02/07 22:34:18;;;;;;;;;;;;;;;-1.78;100.00;103851.47;10439969;28;19920;-68
2023/02/07 22:39:20;;;;;;;;;;;;;;;-1.69;100.00;103857.91;10440854;28;19990;-68
2023/02/07 22:44:23;;;;;;;;;;;;;;;-1.59;100.00;103856.59;10456894;28;19982;-68
2023/02/07 22:49:26;;;;;;;;;;;;;;;-1.74;100.00;103861.97;10441136;28;19927;-68
2023/02/07 22:54:28;;;;;;;;;;;;;;;-1.87;100.00;103862.25;10453766;28;19971;-68
2023/02/07 22:59:30;;;;;;;;;;;;;;;-1.76;100.00;103858.47;10457870;28;19921;-69
2023/02/07 23:04:32;;;;;;;;;;;;;;;-1.89;100.00;103841.63;10439102;28;19924;-68
2023/02/07 23:09:35;;;;;;;;;;;;;;;-1.81;100.00;103847.09;10456493;28;20330;-69
2023/02/07 23:14:37;;;;;;;;;;;;;;;-1.97;100.00;103842.97;10457286;28;19921;-68
2023/02/07 23:19:40;;;;;;;;;;;;;;;-2.12;100.00;103855.16;10456264;28;19921;-69
2023/02/07 23:24:42;;;;;;;;;;;;;;;-2.20;100.00;103859.06;10422653;28;19924;-69
2023/02/07 23:29:44;;;;;;;;;;;;;;;-2.20;100.00;103854.84;10455694;28;19921;-69
2023/02/07 23:34:46;;;;;;;;;;;;;;;-2.41;100.00;103859.84;10456771;28;19986;-69
2023/02/07 23:39:49;;;;;;;;;;;;;;;-2.29;100.00;103864.66;10438799;28;19975;-69
2023/02/07 23:44:51;;;;;;;;;;;;;;;-2.38;100.00;103857.44;10455529;28;20273;-68
2023/02/07 23:49:53;;;;;;;;;;;;;;;-2.25;100.00;103853.75;10455132;28;19924;-68
2023/02/07 23:54:56;;;;;;;;;;;;;;;-2.29;100.00;103859.53;10461443;28;19921;-68
2023/02/07 23:59:58;;;;;;;;;;;;;;;-2.46;100.00;103857.06;10464768;28;20280;-68
